createdAt,value
2022-10-18T00:02:08.351Z,15.39
2022-10-18T00:04:34.999Z,15.22
2022-10-18T00:07:01.564Z,15.03
2022-10-18T00:09:28.152Z,15.17
2022-10-18T00:11:55.693Z,15.41
2022-10-18T00:14:22.835Z,15.56
2022-10-18T00:16:49.466Z,15.73
2022-10-18T00:19:16.002Z,15.60
2022-10-18T00:24:14.354Z,15.94
2022-10-18T00:26:40.936Z,16.06
2022-10-18T00:29:07.494Z,16.26
2022-10-18T00:31:36.208Z,16.31
2022-10-18T00:34:06.174Z,16.38
2022-10-18T00:36:34.321Z,16.38
2022-10-18T00:39:02.491Z,16.50
2022-10-18T00:41:31.099Z,16.54
2022-10-18T00:44:07.342Z,16.62
2022-10-18T00:46:36.131Z,16.54
2022-10-18T00:49:06.645Z,16.65
2022-10-18T00:52:13.536Z,16.63
2022-10-18T00:54:42.097Z,16.65
2022-10-18T00:57:08.904Z,16.62
2022-10-18T00:59:36.007Z,16.63
2022-10-18T01:02:02.894Z,16.71
2022-10-18T01:04:29.448Z,16.78
2022-10-18T01:07:25.475Z,16.98
2022-10-18T01:10:13.966Z,17.12
2022-10-18T01:13:07.860Z,17.16
2022-10-18T01:15:57.511Z,17.25
2022-10-18T01:18:40.411Z,17.28
2022-10-18T01:21:23.089Z,17.16
2022-10-18T01:24:20.595Z,17.12
2022-10-18T01:27:08.610Z,17.28
2022-10-18T01:29:53.818Z,17.28
2022-10-18T01:32:27.184Z,17.30
2022-10-18T01:34:59.816Z,17.30
2022-10-18T01:37:28.171Z,17.39
2022-10-18T01:39:56.017Z,17.44
2022-10-18T01:42:22.451Z,17.53
2022-10-18T01:44:50.873Z,17.52
2022-10-18T01:47:18.359Z,17.54
2022-10-18T01:49:44.935Z,17.56
2022-10-18T01:52:15.865Z,17.60
2022-10-18T01:54:48.985Z,17.64
2022-10-18T01:57:21.471Z,17.63
2022-10-18T02:00:29.875Z,17.62
2022-10-18T02:03:06.988Z,17.58
2022-10-18T02:05:40.469Z,17.45
2022-10-18T02:08:26.362Z,17.54
2022-10-18T02:11:01.574Z,17.20
2022-10-18T02:13:33.645Z,17.20
2022-10-18T02:16:05.413Z,16.94
2022-10-18T02:18:55.983Z,17.08
2022-10-18T02:21:23.174Z,16.63
2022-10-18T02:23:50.204Z,16.74
2022-10-18T02:26:16.903Z,16.70
2022-10-18T02:28:43.994Z,16.28
2022-10-18T02:31:24.131Z,16.62
2022-10-18T02:33:52.794Z,16.83
2022-10-18T02:36:27.416Z,16.97
2022-10-18T02:38:58.821Z,16.84
2022-10-18T02:41:26.607Z,17.11
2022-10-18T02:43:53.132Z,16.69
2022-10-18T02:46:20.505Z,16.88
2022-10-18T02:48:47.121Z,16.71
2022-10-18T02:51:13.664Z,16.99
2022-10-18T02:53:40.317Z,17.03
2022-10-18T02:56:06.970Z,17.06
2022-10-18T02:58:33.455Z,17.23
2022-10-18T03:01:00.381Z,17.20
2022-10-18T03:03:26.954Z,17.21
2022-10-18T03:05:53.494Z,17.07
2022-10-18T03:08:20.120Z,16.63
2022-10-18T03:10:47.068Z,17.00
2022-10-18T03:13:13.941Z,17.16
2022-10-18T03:15:40.554Z,17.27
2022-10-18T03:18:07.129Z,17.22
2022-10-18T03:20:35.175Z,17.29
2022-10-18T03:23:03.236Z,17.36
2022-10-18T03:25:29.768Z,17.29
2022-10-18T03:27:56.319Z,17.31
2022-10-18T03:30:22.837Z,17.20
2022-10-18T03:32:49.372Z,16.86
2022-10-18T03:35:16.081Z,16.62
2022-10-18T03:37:42.679Z,16.95
2022-10-18T03:40:09.468Z,16.94
2022-10-18T03:42:36.203Z,16.54
2022-10-18T03:45:02.790Z,16.74
2022-10-18T03:47:29.303Z,16.59
2022-10-18T03:49:57.237Z,16.77
2022-10-18T03:52:24.361Z,16.60
2022-10-18T03:54:50.878Z,16.82
2022-10-18T03:57:17.406Z,16.88
2022-10-18T03:59:44.181Z,16.97
2022-10-18T04:02:10.785Z,16.65
2022-10-18T04:04:37.472Z,16.70
2022-10-18T04:07:04.074Z,16.49
2022-10-18T04:09:30.639Z,16.71
2022-10-18T04:11:57.166Z,16.72
2022-10-18T04:14:23.727Z,16.82
2022-10-18T04:16:50.334Z,16.84
2022-10-18T04:19:16.984Z,16.86
2022-10-18T04:21:43.492Z,16.85
2022-10-18T04:24:10.067Z,16.85
2022-10-18T04:26:36.653Z,16.35
2022-10-18T04:29:03.964Z,16.07
2022-10-18T04:31:30.802Z,16.25
2022-10-18T04:33:57.312Z,16.65
2022-10-18T04:36:23.800Z,16.74
2022-10-18T04:38:50.293Z,16.92
2022-10-18T04:41:16.813Z,17.00
2022-10-18T04:43:43.407Z,17.12
2022-10-18T04:46:10.007Z,16.97
2022-10-18T04:48:36.583Z,16.92
2022-10-18T04:51:03.270Z,17.02
2022-10-18T04:53:29.876Z,17.03
2022-10-18T04:55:56.455Z,17.07
2022-10-18T04:58:23.542Z,17.12
2022-10-18T05:00:50.365Z,16.92
2022-10-18T05:03:17.049Z,16.98
2022-10-18T05:06:00.927Z,16.86
2022-10-18T05:08:27.849Z,16.65
2022-10-18T05:10:54.556Z,16.80
2022-10-18T05:13:21.186Z,16.68
2022-10-18T05:15:47.776Z,16.60
2022-10-18T05:18:14.536Z,16.53
2022-10-18T05:20:41.055Z,16.66
2022-10-18T05:23:10.747Z,16.55
2022-10-18T05:25:41.210Z,16.66
2022-10-18T05:28:11.063Z,16.69
2022-10-18T05:30:47.821Z,16.63
2022-10-18T05:33:14.367Z,16.74
2022-10-18T05:35:40.840Z,16.77
2022-10-18T05:38:07.667Z,16.83
2022-10-18T05:40:34.253Z,16.73
2022-10-18T05:43:00.782Z,16.82
2022-10-18T05:45:27.412Z,16.73
2022-10-18T05:47:54.615Z,16.62
2022-10-18T05:50:21.139Z,16.69
2022-10-18T05:52:47.637Z,16.63
2022-10-18T05:55:14.257Z,16.65
2022-10-18T05:57:40.844Z,16.63
2022-10-18T06:00:08.097Z,16.63
2022-10-18T06:02:38.399Z,16.36
2022-10-18T06:05:05.166Z,16.46
2022-10-18T06:07:31.958Z,16.53
2022-10-18T06:09:58.686Z,16.61
2022-10-18T06:12:25.317Z,16.65
2022-10-18T06:14:51.896Z,16.77
2022-10-18T06:17:18.848Z,16.83
2022-10-18T06:19:45.593Z,16.88
2022-10-18T06:22:12.495Z,16.71
2022-10-18T06:24:38.987Z,16.74
2022-10-18T06:27:08.837Z,16.94
2022-10-18T06:29:36.226Z,17.06
2022-10-18T06:32:03.353Z,17.24
2022-10-18T06:34:29.896Z,17.39
2022-10-18T06:36:58.655Z,17.53
2022-10-18T06:39:25.864Z,17.38
2022-10-18T06:41:52.516Z,17.34
2022-10-18T06:44:20.353Z,17.43
2022-10-18T06:46:48.093Z,17.47
2022-10-18T06:49:18.228Z,17.76
2022-10-18T06:51:46.140Z,17.84
2022-10-18T06:54:18.188Z,18.00
2022-10-18T06:56:45.150Z,18.23
2022-10-18T06:59:11.720Z,18.54
2022-10-18T07:01:38.455Z,18.56
2022-10-18T07:04:05.112Z,18.62
2022-10-18T07:06:31.601Z,18.54
2022-10-18T07:08:58.271Z,18.49
2022-10-18T07:11:26.742Z,18.86
2022-10-18T07:13:54.488Z,18.89
2022-10-18T07:16:21.371Z,18.81
2022-10-18T07:18:50.446Z,18.97
2022-10-18T07:21:19.376Z,19.16
2022-10-18T07:23:46.359Z,19.22
2022-10-18T07:26:20.018Z,19.42
2022-10-18T07:28:49.960Z,19.46
2022-10-18T07:31:16.599Z,19.36
2022-10-18T07:33:43.156Z,19.40
2022-10-18T07:36:11.045Z,19.38
2022-10-18T07:38:37.709Z,19.45
2022-10-18T07:41:06.802Z,19.62
2022-10-18T07:43:33.867Z,19.83
2022-10-18T07:46:02.850Z,19.89
2022-10-18T07:48:29.823Z,19.95
2022-10-18T07:51:00.625Z,20.07
2022-10-18T07:53:29.127Z,20.23
2022-10-18T07:56:01.341Z,20.33
2022-10-18T07:58:31.784Z,20.44
2022-10-18T08:01:02.370Z,20.51
2022-10-18T08:03:28.933Z,20.44
2022-10-18T08:05:55.567Z,20.59
2022-10-18T08:08:23.819Z,20.62
2022-10-18T08:10:50.910Z,20.74
2022-10-18T08:13:17.811Z,20.90
2022-10-18T08:15:44.562Z,20.91
2022-10-18T08:18:11.478Z,20.81
2022-10-18T08:20:42.730Z,20.86
2022-10-18T08:23:09.436Z,20.84
2022-10-18T08:28:07.564Z,21.20
2022-10-18T08:30:35.454Z,21.33
2022-10-18T08:33:02.824Z,21.49
2022-10-18T08:35:29.430Z,21.58
2022-10-18T08:37:55.949Z,21.69
2022-10-18T08:40:22.669Z,21.89
2022-10-18T08:43:22.029Z,21.23
2022-10-18T08:45:49.697Z,20.85
2022-10-18T08:48:39.053Z,20.46
2022-10-18T08:51:27.274Z,20.82
2022-10-18T08:54:11.388Z,20.54
2022-10-18T08:56:39.541Z,20.92
2022-10-18T08:59:10.357Z,21.11
2022-10-18T09:02:01.583Z,20.93
2022-10-18T09:05:07.103Z,21.38
2022-10-18T09:08:23.257Z,21.56
2022-10-18T09:11:06.111Z,21.56
2022-10-18T09:13:59.751Z,21.57
2022-10-18T09:16:40.411Z,21.93
2022-10-18T09:19:46.087Z,21.99
2022-10-18T09:22:14.423Z,21.60
2022-10-18T09:24:46.641Z,21.08
2022-10-18T09:27:18.887Z,20.80
2022-10-18T09:29:49.059Z,21.17
2022-10-18T09:32:25.420Z,21.35
2022-10-18T09:34:55.587Z,20.98
2022-10-18T09:37:22.338Z,21.39
2022-10-18T09:39:50.736Z,21.29
2022-10-18T09:42:36.051Z,20.80
2022-10-18T09:45:08.552Z,20.29
2022-10-18T09:47:39.451Z,20.54
2022-10-18T09:50:18.049Z,20.42
2022-10-18T09:52:53.441Z,20.76
2022-10-18T09:55:23.240Z,20.73
2022-10-18T09:57:56.476Z,20.75
2022-10-18T10:00:29.058Z,20.84
2022-10-18T10:02:56.176Z,20.90
2022-10-18T10:05:22.736Z,20.76
2022-10-18T10:07:49.376Z,20.54
2022-10-18T10:10:24.014Z,20.29
2022-10-18T10:13:05.896Z,20.21
2022-10-18T10:15:37.081Z,20.27
2022-10-18T10:18:19.242Z,19.96
2022-10-18T10:20:49.017Z,19.98
2022-10-18T10:23:30.747Z,19.94
2022-10-18T10:26:25.332Z,19.99
2022-10-18T10:28:52.197Z,20.19
2022-10-18T10:31:24.745Z,19.98
2022-10-18T10:34:18.485Z,20.49
2022-10-18T10:36:53.199Z,20.80
2022-10-18T10:39:22.331Z,20.76
2022-10-18T10:41:57.374Z,20.50
2022-10-18T10:44:29.610Z,20.60
2022-10-18T10:46:56.739Z,21.03
2022-10-18T10:49:45.767Z,20.94
2022-10-18T10:52:28.553Z,20.87
2022-10-18T10:57:48.725Z,20.70
2022-10-18T11:00:34.169Z,21.02
2022-10-18T11:03:33.749Z,21.34
2022-10-18T11:06:01.698Z,21.16
2022-10-18T11:08:41.133Z,21.25
2022-10-18T11:11:22.852Z,21.69
2022-10-18T11:14:13.257Z,21.63
2022-10-18T11:17:08.076Z,21.67
2022-10-18T11:19:43.005Z,21.86
2022-10-18T11:22:14.277Z,21.70
2022-10-18T11:24:41.419Z,21.71
2022-10-18T11:27:19.447Z,21.90
2022-10-18T11:30:01.510Z,21.73
2022-10-18T11:32:38.461Z,21.89
2022-10-18T11:35:43.481Z,22.54
2022-10-18T11:38:15.806Z,22.60
2022-10-18T11:41:22.528Z,22.58
2022-10-18T11:44:03.100Z,23.07
2022-10-18T11:46:54.841Z,22.82
2022-10-18T11:49:39.133Z,22.70
2022-10-18T11:52:14.022Z,23.05
2022-10-18T11:55:01.962Z,23.12
2022-10-18T11:57:50.409Z,23.03
2022-10-18T12:00:39.362Z,23.09
2022-10-18T12:03:24.340Z,22.44
2022-10-18T12:05:53.211Z,22.70
2022-10-18T12:08:31.509Z,22.51
2022-10-18T12:11:05.920Z,22.47
2022-10-18T12:13:52.364Z,22.53
2022-10-18T12:16:33.790Z,22.44
2022-10-18T12:19:12.541Z,22.54
2022-10-18T12:21:39.360Z,22.03
2022-10-18T12:24:13.595Z,21.70
2022-10-18T12:26:40.288Z,22.16
2022-10-18T12:29:18.384Z,22.14
2022-10-18T12:31:53.798Z,22.49
2022-10-18T12:34:23.838Z,22.34
2022-10-18T12:36:53.299Z,22.11
2022-10-18T12:39:45.089Z,22.05
2022-10-18T12:42:19.157Z,22.00
2022-10-18T12:44:46.476Z,22.09
2022-10-18T12:47:24.711Z,22.25
2022-10-18T12:50:01.975Z,22.16
2022-10-18T12:52:30.605Z,22.20
2022-10-18T12:55:18.285Z,22.19
2022-10-18T12:57:53.996Z,22.15
2022-10-18T13:00:29.705Z,22.28
2022-10-18T13:03:17.908Z,21.91
2022-10-18T13:05:55.933Z,22.14
2022-10-18T13:08:29.038Z,21.97
2022-10-18T13:11:01.394Z,21.72
2022-10-18T13:13:54.725Z,21.81
2022-10-18T13:17:00.607Z,21.89
2022-10-18T13:19:30.107Z,22.13
2022-10-18T13:22:30.548Z,21.94
2022-10-18T13:25:15.812Z,21.68
2022-10-18T13:27:56.273Z,21.49
2022-10-18T13:30:33.396Z,21.50
2022-10-18T13:33:34.821Z,21.67
2022-10-18T13:36:03.991Z,22.33
2022-10-18T13:38:57.824Z,22.50
2022-10-18T13:41:32.769Z,22.26
2022-10-18T13:44:30.669Z,22.25
2022-10-18T13:46:57.155Z,22.23
2022-10-18T13:49:40.204Z,22.31
2022-10-18T13:52:28.435Z,22.37
2022-10-18T13:55:19.320Z,22.46
2022-10-18T13:57:57.928Z,22.05
2022-10-18T14:00:49.133Z,22.03
2022-10-18T14:03:58.870Z,21.70
2022-10-18T14:06:33.531Z,21.90
2022-10-18T14:09:26.229Z,21.64
2022-10-18T14:12:33.526Z,21.74
2022-10-18T14:15:16.580Z,21.37
2022-10-18T14:17:51.931Z,21.85
2022-10-18T14:20:34.449Z,21.81
2022-10-18T14:23:12.927Z,21.91
2022-10-18T14:25:39.516Z,22.04
2022-10-18T14:28:12.321Z,22.16
2022-10-18T14:30:59.377Z,22.19
2022-10-18T14:33:41.130Z,22.25
2022-10-18T14:36:19.677Z,22.34
2022-10-18T14:38:57.696Z,22.75
2022-10-18T14:41:29.607Z,22.29
2022-10-18T14:44:14.707Z,22.50
2022-10-18T14:47:04.470Z,22.52
2022-10-18T14:49:31.482Z,22.13
2022-10-18T14:51:59.556Z,22.26
2022-10-18T14:54:34.425Z,22.59
2022-10-18T14:57:05.575Z,22.31
2022-10-18T15:00:06.569Z,21.73
2022-10-18T15:02:36.472Z,21.69
2022-10-18T15:05:09.356Z,21.51
2022-10-18T15:07:36.025Z,21.84
2022-10-18T15:10:07.850Z,21.54
2022-10-18T15:12:57.755Z,21.26
2022-10-18T15:15:33.506Z,21.48
2022-10-18T15:18:00.502Z,21.32
2022-10-18T15:20:32.647Z,21.45
2022-10-18T15:23:27.471Z,20.97
2022-10-18T15:26:02.448Z,21.01
2022-10-18T15:28:52.236Z,21.12
2022-10-18T15:31:24.549Z,21.36
2022-10-18T15:33:51.688Z,21.53
2022-10-18T15:36:29.717Z,21.39
2022-10-18T15:39:07.580Z,21.35
2022-10-18T15:41:46.128Z,21.30
2022-10-18T15:44:42.426Z,21.20
2022-10-18T15:47:12.502Z,21.23
2022-10-18T15:49:45.061Z,21.17
2022-10-18T15:52:35.190Z,21.12
2022-10-18T15:55:34.689Z,21.13
2022-10-18T15:58:06.405Z,21.02
2022-10-18T16:00:43.285Z,21.08
2022-10-18T16:03:14.690Z,21.00
2022-10-18T16:05:46.546Z,21.17
2022-10-18T16:08:49.391Z,20.95
2022-10-18T16:11:25.697Z,20.98
2022-10-18T16:13:55.215Z,20.91
2022-10-18T16:16:26.782Z,20.87
2022-10-18T16:18:53.611Z,20.86
2022-10-18T16:21:28.291Z,20.58
2022-10-18T16:23:55.084Z,20.71
2022-10-18T16:26:22.599Z,20.46
2022-10-18T16:28:50.229Z,20.60
2022-10-18T16:31:22.219Z,20.59
2022-10-18T16:33:50.829Z,20.44
2022-10-18T16:36:19.366Z,20.52
2022-10-18T16:38:46.386Z,20.40
2022-10-18T16:41:15.907Z,20.50
2022-10-18T16:43:44.507Z,20.56
2022-10-18T16:46:19.660Z,20.57
2022-10-18T16:48:46.826Z,20.76
2022-10-18T16:51:14.673Z,20.48
2022-10-18T16:53:41.772Z,20.47
2022-10-18T16:56:17.024Z,20.29
2022-10-18T16:58:43.950Z,20.00
2022-10-18T17:01:16.365Z,20.30
2022-10-18T17:03:43.637Z,20.42
2022-10-18T17:06:17.751Z,20.52
2022-10-18T17:08:44.473Z,20.31
2022-10-18T17:11:12.430Z,20.29
2022-10-18T17:13:40.057Z,20.23
2022-10-18T17:16:06.860Z,20.26
2022-10-18T17:18:33.526Z,19.95
2022-10-18T17:21:03.046Z,19.87
2022-10-18T17:23:30.387Z,20.21
2022-10-18T17:26:05.356Z,20.10
2022-10-18T17:28:34.230Z,20.21
2022-10-18T17:31:00.919Z,20.25
2022-10-18T17:33:27.483Z,20.41
2022-10-18T17:35:54.076Z,20.40
2022-10-18T17:38:20.680Z,20.30
2022-10-18T17:40:47.628Z,20.43
2022-10-18T17:43:14.368Z,20.36
2022-10-18T17:45:54.662Z,20.36
2022-10-18T17:48:22.822Z,20.27
2022-10-18T17:50:49.378Z,20.33
2022-10-18T17:53:18.328Z,20.45
2022-10-18T17:55:45.045Z,20.25
2022-10-18T17:58:12.040Z,20.36
2022-10-18T18:00:38.772Z,20.37
2022-10-18T18:03:05.511Z,20.35
2022-10-18T18:05:34.044Z,20.36
2022-10-18T18:08:03.846Z,20.16
2022-10-18T18:10:33.370Z,20.41
2022-10-18T18:13:00.423Z,20.42
2022-10-18T18:15:27.098Z,20.30
2022-10-18T18:17:57.409Z,20.41
2022-10-18T18:20:26.456Z,20.35
2022-10-18T18:22:54.914Z,20.35
2022-10-18T18:25:21.576Z,20.30
2022-10-18T18:27:48.307Z,20.21
2022-10-18T18:30:17.638Z,20.08
2022-10-18T18:32:44.406Z,20.07
2022-10-18T18:35:11.081Z,20.03
2022-10-18T18:37:37.870Z,19.95
2022-10-18T18:40:04.760Z,19.83
2022-10-18T18:42:32.264Z,19.89
2022-10-18T18:44:58.911Z,19.86
2022-10-18T18:47:27.046Z,19.79
2022-10-18T18:49:53.971Z,19.60
2022-10-18T18:52:20.530Z,19.52
2022-10-18T18:54:47.019Z,19.54
2022-10-18T18:57:13.604Z,19.59
2022-10-18T18:59:40.139Z,19.59
2022-10-18T19:02:06.721Z,18.89
2022-10-18T19:04:34.945Z,18.81
2022-10-18T19:07:02.545Z,19.20
2022-10-18T19:09:29.195Z,19.33
2022-10-18T19:11:56.538Z,19.39
2022-10-18T19:14:25.406Z,19.42
2022-10-18T19:16:53.916Z,19.44
2022-10-18T19:19:22.644Z,19.33
2022-10-18T19:22:00.684Z,19.30
2022-10-18T19:24:28.652Z,19.26
2022-10-18T19:27:00.828Z,19.16
2022-10-18T19:29:28.586Z,19.11
2022-10-18T19:31:57.339Z,19.00
2022-10-18T19:34:26.272Z,18.97
2022-10-18T19:36:52.886Z,18.98
2022-10-18T19:39:21.934Z,18.93
2022-10-18T19:41:50.994Z,18.91
2022-10-18T19:44:18.936Z,18.87
2022-10-18T19:46:45.634Z,18.77
2022-10-18T19:49:12.185Z,18.82
2022-10-18T19:51:38.784Z,18.73
2022-10-18T19:54:05.632Z,18.73
2022-10-18T19:56:32.212Z,18.63
2022-10-18T19:58:59.359Z,18.65
2022-10-18T20:01:27.998Z,18.60
2022-10-18T20:03:54.720Z,18.37
2022-10-18T20:06:21.631Z,18.31
2022-10-18T20:08:48.814Z,18.27
2022-10-18T20:11:17.755Z,18.40
2022-10-18T20:13:44.428Z,18.39
2022-10-18T20:16:12.650Z,18.41
2022-10-18T20:18:39.278Z,18.20
2022-10-18T20:21:07.116Z,18.29
2022-10-18T20:23:37.974Z,18.25
2022-10-18T20:26:10.733Z,18.29
2022-10-18T20:28:38.231Z,18.27
2022-10-18T20:31:07.390Z,18.12
2022-10-18T20:33:34.856Z,17.74
2022-10-18T20:36:09.893Z,17.52
2022-10-18T20:38:38.625Z,17.75
2022-10-18T20:41:16.911Z,17.52
2022-10-18T20:43:44.215Z,17.80
2022-10-18T20:46:10.954Z,17.84
2022-10-18T20:48:38.802Z,17.92
2022-10-18T20:51:12.684Z,17.77
2022-10-18T20:53:39.900Z,17.63
2022-10-18T20:56:14.596Z,17.78
2022-10-18T20:58:42.829Z,17.75
2022-10-18T21:01:30.820Z,17.75
2022-10-18T21:04:00.251Z,17.79
2022-10-18T21:06:28.829Z,17.81
2022-10-18T21:09:00.141Z,17.71
2022-10-18T21:11:28.244Z,17.78
2022-10-18T21:13:57.476Z,17.65
2022-10-18T21:16:24.235Z,17.66
2022-10-18T21:18:51.039Z,17.61
2022-10-18T21:21:24.691Z,17.60
2022-10-18T21:23:52.240Z,17.67
2022-10-18T21:26:23.570Z,17.21
2022-10-18T21:28:51.229Z,17.32
2022-10-18T21:31:20.557Z,17.43
2022-10-18T21:33:48.106Z,17.31
2022-10-18T21:36:14.891Z,17.42
2022-10-18T21:38:44.688Z,17.50
2022-10-18T21:41:13.315Z,17.34
2022-10-18T21:43:41.880Z,17.18
2022-10-18T21:46:10.043Z,17.28
2022-10-18T21:48:37.048Z,17.30
2022-10-18T21:51:07.865Z,17.24
2022-10-18T21:53:34.683Z,17.35
2022-10-18T21:56:09.803Z,17.39
2022-10-18T21:58:37.169Z,17.38
2022-10-18T22:01:09.397Z,17.36
2022-10-18T22:03:36.253Z,17.30
2022-10-18T22:06:09.521Z,17.27
2022-10-18T22:08:36.256Z,17.24
2022-10-18T22:11:03.162Z,17.09
2022-10-18T22:13:29.797Z,17.17
2022-10-18T22:15:56.450Z,17.19
2022-10-18T22:18:23.061Z,17.12
2022-10-18T22:21:00.558Z,17.16
2022-10-18T22:23:43.680Z,17.07
2022-10-18T22:26:23.271Z,16.91
2022-10-18T22:29:00.823Z,16.25
2022-10-18T22:31:29.870Z,16.63
2022-10-18T22:33:58.854Z,16.72
2022-10-18T22:36:26.334Z,16.72
2022-10-18T22:38:53.023Z,16.82
2022-10-18T22:41:20.080Z,16.38
2022-10-18T22:43:48.311Z,16.16
2022-10-18T22:46:15.422Z,16.07
2022-10-18T22:48:42.439Z,16.08
2022-10-18T22:51:09.673Z,16.33
2022-10-18T22:53:37.055Z,16.14
2022-10-18T22:56:04.272Z,16.18
2022-10-18T22:58:30.877Z,16.50
2022-10-18T23:01:05.708Z,16.58
2022-10-18T23:03:32.696Z,16.41
2022-10-18T23:05:59.619Z,16.11
2022-10-18T23:08:26.667Z,16.39
2022-10-18T23:10:55.552Z,16.54
2022-10-18T23:13:23.616Z,16.62
2022-10-18T23:15:50.483Z,16.71
2022-10-18T23:18:17.685Z,16.70
2022-10-18T23:20:44.803Z,16.74
2022-10-18T23:23:12.645Z,16.68
2022-10-18T23:25:39.407Z,16.73
2022-10-18T23:28:06.388Z,16.69
2022-10-18T23:30:33.772Z,16.62
2022-10-18T23:33:00.278Z,16.57
2022-10-18T23:35:29.309Z,16.64
2022-10-18T23:37:56.359Z,16.65
2022-10-18T23:40:22.851Z,16.45
2022-10-18T23:42:49.423Z,16.48
2022-10-18T23:45:16.025Z,16.54
2022-10-18T23:47:42.623Z,16.37
2022-10-18T23:50:09.831Z,16.45
2022-10-18T23:52:36.392Z,16.48
2022-10-18T23:55:03.007Z,16.41
2022-10-18T23:57:29.629Z,16.40
2022-10-18T23:59:56.266Z,16.47
